createdAt,value
2019-01-28T00:00:58.842Z,104.53
2019-01-28T00:03:28.398Z,97.90
2019-01-28T00:05:57.832Z,95.97
2019-01-28T00:08:27.288Z,96.47
2019-01-28T00:10:56.769Z,95.50
2019-01-28T00:13:26.366Z,104.63
2019-01-28T00:15:55.869Z,105.90
2019-01-28T00:18:25.382Z,105.87
2019-01-28T00:20:54.890Z,108.87
2019-01-28T00:23:24.387Z,108.87
2019-01-28T00:25:53.875Z,109.83
2019-01-28T00:28:23.400Z,108.00
2019-01-28T00:30:52.889Z,110.47
2019-01-28T00:33:22.385Z,110.43
2019-01-28T00:35:51.872Z,110.83
2019-01-28T00:38:21.792Z,110.03
2019-01-28T00:40:51.385Z,112.00
2019-01-28T00:43:20.875Z,111.27
2019-01-28T00:45:50.351Z,108.07
2019-01-28T00:48:19.909Z,110.23
2019-01-28T00:50:49.419Z,110.07
2019-01-28T00:53:18.928Z,109.53
2019-01-28T00:55:48.430Z,110.10
2019-01-28T00:58:17.917Z,110.90
2019-01-28T01:00:47.504Z,108.27
2019-01-28T01:03:17.028Z,104.87
2019-01-28T01:05:46.639Z,101.83
2019-01-28T01:08:16.163Z,98.70
2019-01-28T01:10:45.638Z,97.67
2019-01-28T01:13:15.139Z,104.70
2019-01-28T01:15:44.621Z,93.83
2019-01-28T01:18:14.151Z,100.23
2019-01-28T01:20:43.626Z,94.10
2019-01-28T01:23:13.098Z,90.43
2019-01-28T01:25:42.656Z,85.73
2019-01-28T01:28:12.203Z,78.63
2019-01-28T01:30:41.713Z,76.07
2019-01-28T01:33:11.247Z,83.93
2019-01-28T01:35:40.783Z,75.47
2019-01-28T01:38:12.000Z,67.63
2019-01-28T01:40:41.570Z,61.03
2019-01-28T01:43:11.068Z,67.73
2019-01-28T01:45:40.550Z,61.83
2019-01-28T01:48:10.019Z,66.60
2019-01-28T01:50:39.497Z,63.57
2019-01-28T01:53:09.035Z,65.80
2019-01-28T01:55:38.574Z,57.30
2019-01-28T01:58:08.054Z,59.97
2019-01-28T02:00:37.627Z,66.10
2019-01-28T02:03:07.134Z,58.77
2019-01-28T02:05:36.600Z,56.33
2019-01-28T02:08:06.069Z,55.40
2019-01-28T02:10:35.508Z,55.67
2019-01-28T02:13:05.096Z,51.13
2019-01-28T02:15:34.615Z,54.87
2019-01-28T02:18:04.127Z,55.57
2019-01-28T02:20:33.592Z,56.43
2019-01-28T02:23:04.409Z,55.30
2019-01-28T02:25:34.018Z,52.50
2019-01-28T02:28:03.531Z,48.80
2019-01-28T02:30:33.003Z,50.70
2019-01-28T02:33:02.528Z,49.40
2019-01-28T02:35:32.045Z,51.30
2019-01-28T02:38:01.524Z,49.53
2019-01-28T02:40:30.995Z,52.13
2019-01-28T02:43:00.476Z,52.53
2019-01-28T02:45:29.980Z,52.47
2019-01-28T02:47:59.467Z,50.80
2019-01-28T02:50:28.977Z,53.67
2019-01-28T02:52:58.460Z,51.27
2019-01-28T02:55:28.425Z,50.17
2019-01-28T02:57:57.980Z,49.63
2019-01-28T03:00:27.457Z,53.57
2019-01-28T03:02:56.923Z,50.57
2019-01-28T03:05:26.392Z,52.80
2019-01-28T03:07:55.898Z,54.00
2019-01-28T03:10:25.490Z,53.00
2019-01-28T03:12:54.955Z,55.83
2019-01-28T03:15:24.424Z,54.43
2019-01-28T03:17:53.984Z,52.63
2019-01-28T03:20:23.412Z,54.67
2019-01-28T03:22:55.176Z,52.40
2019-01-28T03:25:24.674Z,52.20
2019-01-28T03:27:54.220Z,53.07
2019-01-28T03:30:24.314Z,65.20
2019-01-28T03:32:53.821Z,55.53
2019-01-28T03:35:23.306Z,61.27
2019-01-28T03:37:52.801Z,57.20
2019-01-28T03:40:22.500Z,52.30
2019-01-28T03:42:52.068Z,46.40
2019-01-28T03:45:22.461Z,44.90
2019-01-28T03:47:51.953Z,45.87
2019-01-28T03:50:21.453Z,47.60
2019-01-28T03:52:51.049Z,47.70
2019-01-28T03:55:20.711Z,46.20
2019-01-28T03:57:50.237Z,46.60
2019-01-28T04:00:21.790Z,46.27
2019-01-28T04:02:51.464Z,45.80
2019-01-28T04:05:21.453Z,45.57
2019-01-28T04:07:50.978Z,42.90
2019-01-28T04:10:22.239Z,43.37
2019-01-28T04:12:52.064Z,46.27
2019-01-28T04:15:22.593Z,40.07
2019-01-28T04:17:52.050Z,44.33
2019-01-28T04:20:22.315Z,41.40
2019-01-28T04:22:51.810Z,42.37
2019-01-28T04:25:21.293Z,40.53
2019-01-28T04:27:50.782Z,40.27
2019-01-28T04:30:22.084Z,40.47
2019-01-28T04:32:51.577Z,42.50
2019-01-28T04:35:21.045Z,41.30
2019-01-28T04:37:50.531Z,40.00
2019-01-28T04:40:19.989Z,42.17
2019-01-28T04:42:49.516Z,38.27
2019-01-28T04:45:19.303Z,38.87
2019-01-28T04:47:49.189Z,38.67
2019-01-28T04:50:19.953Z,40.80
2019-01-28T04:52:49.558Z,42.53
2019-01-28T04:55:19.337Z,41.50
2019-01-28T04:57:48.851Z,39.10
2019-01-28T05:00:20.489Z,40.93
2019-01-28T05:02:50.262Z,37.00
2019-01-28T05:05:19.883Z,36.47
2019-01-28T05:07:49.371Z,36.97
2019-01-28T05:10:20.372Z,36.53
2019-01-28T05:12:49.976Z,38.30
2019-01-28T05:15:19.888Z,37.43
2019-01-28T05:17:49.467Z,38.83
2019-01-28T05:20:20.574Z,35.53
2019-01-28T05:22:50.143Z,38.90
2019-01-28T05:25:19.914Z,35.03
2019-01-28T05:27:49.456Z,37.27
2019-01-28T05:30:21.077Z,34.37
2019-01-28T05:32:50.581Z,36.50
2019-01-28T05:35:21.694Z,33.73
2019-01-28T05:37:51.549Z,33.57
2019-01-28T05:40:23.972Z,36.33
2019-01-28T05:42:53.499Z,35.07
2019-01-28T05:45:23.823Z,36.77
2019-01-28T05:47:53.436Z,35.87
2019-01-28T05:50:23.158Z,32.90
2019-01-28T05:52:52.720Z,34.40
2019-01-28T05:55:22.224Z,36.30
2019-01-28T05:57:51.776Z,35.13
2019-01-28T06:00:25.666Z,34.00
2019-01-28T06:02:55.146Z,35.87
2019-01-28T06:05:24.810Z,33.17
2019-01-28T06:07:54.304Z,34.20
2019-01-28T06:10:23.771Z,33.60
2019-01-28T06:12:53.277Z,33.77
2019-01-28T06:15:22.765Z,35.93
2019-01-28T06:17:52.248Z,33.63
2019-01-28T06:20:22.911Z,33.40
2019-01-28T06:22:52.512Z,35.30
2019-01-28T06:25:22.329Z,34.07
2019-01-28T06:27:51.830Z,35.07
2019-01-28T06:30:31.347Z,36.53
2019-01-28T06:33:00.833Z,33.53
2019-01-28T06:35:30.428Z,34.83
2019-01-28T06:37:59.995Z,34.20
2019-01-28T06:40:32.024Z,35.80
2019-01-28T06:43:01.873Z,34.00
2019-01-28T06:45:31.532Z,35.30
2019-01-28T06:48:01.113Z,35.53
2019-01-28T06:50:30.625Z,34.60
2019-01-28T06:53:00.143Z,33.97
2019-01-28T06:55:29.971Z,36.23
2019-01-28T06:57:59.461Z,35.27
2019-01-28T07:00:34.336Z,36.37
2019-01-28T07:03:04.107Z,36.83
2019-01-28T07:05:33.609Z,38.77
2019-01-28T07:08:03.503Z,36.95
2019-01-28T07:10:32.998Z,38.30
2019-01-28T07:13:02.539Z,42.40
2019-01-28T07:15:34.522Z,46.90
2019-01-28T07:18:04.095Z,45.13
2019-01-28T07:20:33.600Z,52.13
2019-01-28T07:23:03.062Z,50.40
2019-01-28T07:25:32.568Z,49.80
2019-01-28T07:28:02.071Z,52.13
2019-01-28T07:30:33.798Z,50.17
2019-01-28T07:33:03.341Z,51.57
2019-01-28T07:35:32.809Z,52.13
2019-01-28T07:38:02.285Z,53.70
2019-01-28T07:40:31.748Z,48.73
2019-01-28T07:43:01.237Z,56.20
2019-01-28T07:45:36.146Z,52.23
2019-01-28T07:48:06.397Z,53.17
2019-01-28T07:50:35.897Z,51.80
2019-01-28T07:53:05.708Z,51.13
2019-01-28T07:55:35.212Z,50.73
2019-01-28T07:58:05.711Z,52.23
2019-01-28T08:00:35.158Z,50.70
2019-01-28T08:03:05.068Z,53.70
2019-01-28T08:05:34.671Z,51.70
2019-01-28T08:08:04.355Z,49.43
2019-01-28T08:10:33.831Z,50.67
2019-01-28T08:13:03.508Z,51.83
2019-01-28T08:15:33.008Z,52.50
2019-01-28T08:18:10.254Z,49.73
2019-01-28T08:20:33.785Z,49.43
2019-01-28T08:23:03.277Z,52.10
2019-01-28T08:25:32.767Z,50.13
2019-01-28T08:28:02.399Z,47.43
2019-01-28T08:30:34.542Z,50.03
2019-01-28T08:33:04.579Z,50.47
2019-01-28T08:35:35.253Z,49.30
2019-01-28T08:38:05.160Z,52.93
2019-01-28T08:40:35.256Z,50.60
2019-01-28T08:43:04.942Z,51.13
2019-01-28T08:45:34.590Z,47.73
2019-01-28T08:48:04.430Z,48.10
2019-01-28T08:50:34.060Z,48.57
2019-01-28T08:53:03.544Z,47.10
2019-01-28T08:55:33.993Z,46.80
2019-01-28T08:58:03.472Z,47.77
2019-01-28T09:00:41.233Z,48.77
2019-01-28T09:03:10.967Z,47.57
2019-01-28T09:05:40.608Z,45.63
2019-01-28T09:08:10.351Z,49.53
2019-01-28T09:10:40.126Z,47.67
2019-01-28T09:13:10.174Z,43.30
2019-01-28T09:15:40.064Z,43.33
2019-01-28T09:18:11.310Z,40.53
2019-01-28T09:20:40.909Z,43.20
2019-01-28T09:23:10.441Z,42.57
2019-01-28T09:25:40.065Z,44.07
2019-01-28T09:28:10.326Z,41.70
2019-01-28T09:30:40.045Z,42.53
2019-01-28T09:33:09.741Z,41.60
2019-01-28T09:35:39.475Z,44.40
2019-01-28T09:38:09.214Z,44.10
2019-01-28T09:40:39.033Z,44.83
2019-01-28T09:43:08.949Z,45.13
2019-01-28T09:45:42.751Z,43.83
2019-01-28T09:48:14.707Z,44.90
2019-01-28T09:50:46.571Z,46.53
2019-01-28T09:53:16.357Z,43.90
2019-01-28T09:55:45.886Z,45.87
2019-01-28T09:58:15.388Z,44.57
2019-01-28T10:00:50.067Z,45.97
2019-01-28T10:03:19.724Z,48.20
2019-01-28T10:05:49.372Z,54.47
2019-01-28T10:08:19.033Z,54.30
2019-01-28T10:10:48.566Z,53.10
2019-01-28T10:13:18.058Z,53.57
2019-01-28T10:15:47.550Z,50.80
2019-01-28T10:18:17.020Z,51.80
2019-01-28T10:20:48.446Z,46.90
2019-01-28T10:23:17.931Z,48.97
2019-01-28T10:25:47.760Z,53.20
2019-01-28T10:28:17.305Z,55.13
2019-01-28T10:30:47.598Z,55.13
2019-01-28T10:33:17.203Z,53.73
2019-01-28T10:35:47.720Z,54.97
2019-01-28T10:38:17.626Z,52.40
2019-01-28T10:40:48.290Z,51.57
2019-01-28T10:43:17.785Z,51.57
2019-01-28T10:45:47.830Z,47.77
2019-01-28T10:48:19.191Z,45.23
2019-01-28T10:50:48.906Z,40.60
2019-01-28T10:53:18.353Z,40.03
2019-01-28T10:55:47.910Z,38.43
2019-01-28T10:58:17.759Z,39.93
2019-01-28T11:00:49.843Z,39.20
2019-01-28T11:03:26.225Z,39.63
2019-01-28T11:05:55.658Z,41.07
2019-01-28T11:08:25.168Z,42.27
2019-01-28T11:10:54.914Z,41.53
2019-01-28T11:13:24.481Z,40.70
2019-01-28T11:15:54.088Z,39.40
2019-01-28T11:18:26.837Z,39.37
2019-01-28T11:20:56.516Z,39.40
2019-01-28T11:23:26.109Z,37.47
2019-01-28T11:25:55.865Z,38.17
2019-01-28T11:28:25.370Z,35.27
2019-01-28T11:31:02.318Z,34.33
2019-01-28T11:33:32.374Z,31.17
2019-01-28T11:36:05.374Z,32.77
2019-01-28T11:38:33.834Z,30.40
2019-01-28T11:41:03.344Z,24.30
2019-01-28T11:43:32.912Z,22.57
2019-01-28T11:46:04.998Z,22.27
2019-01-28T11:48:34.491Z,21.90
2019-01-28T11:51:04.536Z,20.70
2019-01-28T11:53:34.045Z,20.83
2019-01-28T11:56:03.614Z,20.23
2019-01-28T11:58:33.152Z,20.87
2019-01-28T12:01:31.360Z,18.97
2019-01-28T12:04:00.907Z,19.67
2019-01-28T12:06:30.702Z,19.83
2019-01-28T12:09:00.166Z,18.53
2019-01-28T12:11:29.662Z,19.97
2019-01-28T12:13:59.201Z,19.80
2019-01-28T12:16:28.737Z,21.57
2019-01-28T12:18:58.272Z,22.30
2019-01-28T12:21:27.703Z,20.70
2019-01-28T12:23:57.201Z,20.63
2019-01-28T12:26:26.684Z,19.77
2019-01-28T12:28:59.281Z,20.77
2019-01-28T12:31:28.804Z,20.03
2019-01-28T12:33:58.275Z,18.40
2019-01-28T12:36:27.785Z,18.87
2019-01-28T12:38:57.378Z,19.60
2019-01-28T12:41:26.954Z,19.10
2019-01-28T12:43:56.427Z,19.73
2019-01-28T12:46:25.968Z,20.63
2019-01-28T12:48:55.477Z,20.30
2019-01-28T12:51:24.978Z,21.40
2019-01-28T12:53:54.496Z,20.63
2019-01-28T12:56:23.966Z,19.73
2019-01-28T12:58:53.453Z,20.43
2019-01-28T13:01:23.011Z,21.73
2019-01-28T13:03:52.508Z,23.20
2019-01-28T13:06:22.012Z,23.23
2019-01-28T13:08:51.467Z,24.40
2019-01-28T13:11:20.950Z,23.33
2019-01-28T13:13:50.436Z,22.40
2019-01-28T13:16:20.078Z,24.33
2019-01-28T13:18:49.709Z,23.97
2019-01-28T13:21:24.146Z,21.43
2019-01-28T13:23:56.100Z,22.40
2019-01-28T13:26:25.648Z,21.00
2019-01-28T13:28:55.239Z,21.43
2019-01-28T13:31:24.713Z,21.57
2019-01-28T13:33:54.216Z,20.50
2019-01-28T13:36:23.778Z,21.17
2019-01-28T13:38:54.671Z,19.97
2019-01-28T13:41:24.163Z,21.13
2019-01-28T13:43:53.648Z,21.93
2019-01-28T13:46:23.184Z,20.53
2019-01-28T13:48:52.648Z,20.73
2019-01-28T13:51:22.241Z,20.20
2019-01-28T13:53:51.710Z,20.13
2019-01-28T13:56:21.208Z,20.17
2019-01-28T13:58:52.394Z,19.10
2019-01-28T14:01:21.918Z,21.10
2019-01-28T14:03:51.456Z,20.30
2019-01-28T14:06:20.997Z,21.73
2019-01-28T14:08:50.626Z,20.73
2019-01-28T14:11:20.140Z,20.23
2019-01-28T14:13:49.665Z,21.37
2019-01-28T14:16:19.235Z,22.23
2019-01-28T14:18:48.722Z,22.40
2019-01-28T14:21:18.224Z,22.27
2019-01-28T14:23:47.765Z,22.17
2019-01-28T14:26:17.301Z,21.53
2019-01-28T14:28:46.833Z,23.07
2019-01-28T14:31:16.389Z,22.43
2019-01-28T14:33:45.955Z,22.27
2019-01-28T14:36:15.524Z,22.27
2019-01-28T14:38:45.035Z,22.20
2019-01-28T14:41:14.555Z,22.23
2019-01-28T14:43:44.127Z,21.93
2019-01-28T14:46:13.627Z,22.17
2019-01-28T14:48:49.084Z,21.20
2019-01-28T14:51:14.607Z,21.83
2019-01-28T14:53:46.743Z,22.37
2019-01-28T14:56:16.604Z,22.17
2019-01-28T14:58:47.018Z,21.63
2019-01-28T15:01:18.322Z,22.53
2019-01-28T15:03:47.902Z,23.10
2019-01-28T15:06:17.585Z,22.87
2019-01-28T15:08:47.187Z,23.83
2019-01-28T15:11:16.859Z,23.70
2019-01-28T15:13:46.392Z,24.93
2019-01-28T15:16:16.004Z,25.07
2019-01-28T15:18:45.727Z,23.53
2019-01-28T15:21:15.262Z,24.23
2019-01-28T15:23:44.850Z,24.50
2019-01-28T15:26:14.504Z,23.33
2019-01-28T15:28:44.096Z,25.60
2019-01-28T15:31:13.611Z,25.47
2019-01-28T15:33:43.169Z,26.47
2019-01-28T15:36:12.709Z,26.93
2019-01-28T15:38:42.316Z,26.43
2019-01-28T15:41:11.977Z,24.60
2019-01-28T15:43:41.583Z,26.23
2019-01-28T15:46:11.181Z,26.00
2019-01-28T15:48:40.845Z,26.47
2019-01-28T15:51:10.351Z,26.57
2019-01-28T15:53:39.915Z,26.37
2019-01-28T15:56:09.578Z,25.80
2019-01-28T15:58:39.157Z,26.53
2019-01-28T16:01:08.720Z,25.50
2019-01-28T16:03:39.443Z,26.40
2019-01-28T16:06:09.041Z,28.17
2019-01-28T16:08:38.587Z,27.80
2019-01-28T16:11:08.122Z,27.67
2019-01-28T16:13:37.661Z,28.40
2019-01-28T16:16:07.546Z,26.87
2019-01-28T16:18:37.117Z,28.57
2019-01-28T16:21:07.406Z,30.47
2019-01-28T16:23:37.193Z,30.20
2019-01-28T16:26:07.056Z,29.83
2019-01-28T16:28:37.023Z,31.53
2019-01-28T16:31:06.575Z,32.80
2019-01-28T16:33:36.091Z,32.47
2019-01-28T16:36:07.722Z,32.83
2019-01-28T16:38:37.416Z,34.07
2019-01-28T16:41:07.128Z,32.77
2019-01-28T16:43:36.697Z,34.07
2019-01-28T16:46:06.683Z,32.27
2019-01-28T16:48:36.299Z,34.63
2019-01-28T16:51:06.786Z,31.20
2019-01-28T16:53:36.536Z,33.43
2019-01-28T16:56:06.431Z,33.23
2019-01-28T16:58:38.146Z,31.60
2019-01-28T17:01:07.761Z,32.50
2019-01-28T17:03:37.318Z,30.03
2019-01-28T17:06:07.475Z,33.07
2019-01-28T17:08:37.066Z,31.30
2019-01-28T17:11:06.608Z,28.90
2019-01-28T17:13:36.147Z,29.90
2019-01-28T17:16:05.883Z,31.30
2019-01-28T17:18:35.559Z,30.03
2019-01-28T17:21:05.517Z,30.57
2019-01-28T17:23:35.067Z,31.97
2019-01-28T17:26:04.752Z,30.73
2019-01-28T17:28:34.282Z,29.27
2019-01-28T17:31:03.906Z,30.60
2019-01-28T17:33:33.641Z,30.93
2019-01-28T17:36:03.181Z,28.50
2019-01-28T17:38:32.935Z,41.67
2019-01-28T17:41:02.485Z,31.03
2019-01-28T17:43:32.051Z,33.90
2019-01-28T17:46:01.699Z,31.63
2019-01-28T17:48:31.219Z,30.13
2019-01-28T17:51:00.804Z,30.77
2019-01-28T17:53:30.342Z,33.33
2019-01-28T17:55:59.842Z,29.73
2019-01-28T17:58:29.374Z,29.80
2019-01-28T18:00:59.755Z,28.47
2019-01-28T18:03:29.517Z,30.00
2019-01-28T18:05:59.090Z,26.10
2019-01-28T18:08:28.714Z,26.80
2019-01-28T18:10:58.512Z,27.10
2019-01-28T18:13:28.049Z,23.57
2019-01-28T18:15:57.610Z,22.80
2019-01-28T18:18:27.119Z,28.07
2019-01-28T18:20:56.895Z,23.37
2019-01-28T18:23:51.224Z,24.97
2019-01-28T18:26:21.112Z,26.10
2019-01-28T18:28:51.337Z,26.93
2019-01-28T18:31:20.904Z,27.00
2019-01-28T18:33:50.456Z,27.30
2019-01-28T18:36:22.060Z,29.67
2019-01-28T18:38:51.616Z,33.60
2019-01-28T18:41:21.152Z,34.80
2019-01-28T18:43:50.710Z,34.30
2019-01-28T18:46:24.776Z,39.20
2019-01-28T18:48:55.902Z,42.80
2019-01-28T18:51:25.524Z,41.77
2019-01-28T18:53:58.585Z,59.03
2019-01-28T18:56:28.253Z,52.17
2019-01-28T18:58:57.829Z,51.57
2019-01-28T19:01:28.377Z,55.27
2019-01-28T19:03:57.930Z,54.07
2019-01-28T19:06:46.365Z,55.07
2019-01-28T19:09:37.697Z,57.80
2019-01-28T19:12:28.907Z,55.87
2019-01-28T19:15:10.434Z,55.53
2019-01-28T19:17:55.484Z,53.40
2019-01-28T19:20:36.506Z,49.87
2019-01-28T19:23:08.984Z,53.10
2019-01-28T19:25:38.655Z,51.27
2019-01-28T19:28:08.179Z,46.40
2019-01-28T19:30:37.721Z,48.17
2019-01-28T19:33:07.414Z,49.97
2019-01-28T19:35:37.676Z,46.83
2019-01-28T19:38:07.658Z,46.80
2019-01-28T19:40:37.293Z,47.93
2019-01-28T19:43:07.125Z,47.10
2019-01-28T19:45:36.675Z,44.53
2019-01-28T19:48:06.846Z,44.80
2019-01-28T19:50:36.415Z,44.87
2019-01-28T19:53:06.407Z,45.47
2019-01-28T19:55:36.020Z,46.80
2019-01-28T19:58:05.810Z,44.23
2019-01-28T20:00:35.375Z,41.50
2019-01-28T20:03:06.719Z,38.83
2019-01-28T20:05:36.375Z,40.77
2019-01-28T20:08:06.101Z,42.23
2019-01-28T20:10:35.628Z,41.33
2019-01-28T20:13:07.320Z,44.87
2019-01-28T20:15:37.069Z,44.27
2019-01-28T20:18:06.717Z,46.17
2019-01-28T20:20:36.609Z,41.97
2019-01-28T20:23:06.266Z,40.40
2019-01-28T20:25:36.192Z,42.93
2019-01-28T20:28:05.887Z,41.33
2019-01-28T20:30:35.739Z,38.37
2019-01-28T20:33:05.833Z,41.53
2019-01-28T20:35:35.684Z,43.47
2019-01-28T20:38:05.603Z,45.80
2019-01-28T20:40:36.102Z,43.60
2019-01-28T20:43:06.801Z,44.70
2019-01-28T20:45:45.031Z,46.30
2019-01-28T20:48:11.506Z,43.57
2019-01-28T20:50:50.677Z,44.13
2019-01-28T20:53:20.811Z,46.40
2019-01-28T20:55:51.645Z,47.20
2019-01-28T20:58:21.317Z,45.93
2019-01-28T21:00:53.210Z,45.33
2019-01-28T21:03:22.719Z,42.73
2019-01-28T21:05:52.224Z,42.97
2019-01-28T21:08:21.801Z,43.40
2019-01-28T21:10:51.358Z,44.30
2019-01-28T21:13:20.905Z,42.00
2019-01-28T21:15:50.744Z,42.50
2019-01-28T21:18:20.513Z,39.30
2019-01-28T21:20:50.140Z,40.80
2019-01-28T21:23:19.646Z,41.50
2019-01-28T21:25:49.303Z,40.63
2019-01-28T21:28:18.838Z,41.40
2019-01-28T21:30:48.395Z,43.23
2019-01-28T21:33:17.931Z,40.87
2019-01-28T21:35:59.599Z,43.67
2019-01-28T21:38:49.568Z,42.03
2019-01-28T21:41:19.461Z,42.10
2019-01-28T21:43:49.017Z,44.07
2019-01-28T21:46:18.933Z,42.80
2019-01-28T21:48:49.058Z,41.83
2019-01-28T21:51:18.592Z,43.37
2019-01-28T21:53:51.332Z,40.70
2019-01-28T21:56:20.859Z,41.50
2019-01-28T21:58:50.602Z,42.87
2019-01-28T22:01:20.258Z,41.57
2019-01-28T22:03:49.814Z,42.60
2019-01-28T22:06:19.327Z,41.20
2019-01-28T22:08:48.858Z,42.90
2019-01-28T22:11:18.372Z,42.40
2019-01-28T22:13:47.906Z,39.77
2019-01-28T22:16:17.685Z,41.93
2019-01-28T22:18:47.220Z,42.23
2019-01-28T22:21:16.857Z,42.37
2019-01-28T22:23:46.431Z,41.07
2019-01-28T22:26:15.951Z,39.17
2019-01-28T22:28:45.493Z,42.87
2019-01-28T22:31:15.016Z,41.63
2019-01-28T22:33:44.525Z,42.00
2019-01-28T22:36:14.380Z,38.93
2019-01-28T22:38:45.091Z,39.57
2019-01-28T22:41:15.216Z,38.93
2019-01-28T22:43:44.747Z,38.63
2019-01-28T22:46:14.278Z,35.47
2019-01-28T22:48:43.809Z,35.33
2019-01-28T22:51:13.375Z,36.57
2019-01-28T22:53:42.922Z,34.60
2019-01-28T22:56:12.407Z,35.13
2019-01-28T22:58:41.904Z,36.00
2019-01-28T23:01:30.752Z,36.83
2019-01-28T23:04:00.459Z,33.33
2019-01-28T23:06:29.991Z,33.43
2019-01-28T23:08:59.555Z,34.33
2019-01-28T23:11:29.104Z,35.03
2019-01-28T23:13:58.745Z,34.20
2019-01-28T23:16:28.310Z,32.53
2019-01-28T23:18:57.811Z,35.10
2019-01-28T23:21:27.416Z,36.77
2019-01-28T23:23:56.947Z,35.37
2019-01-28T23:26:26.496Z,34.57
2019-01-28T23:28:56.015Z,33.80
2019-01-28T23:31:25.536Z,33.10
2019-01-28T23:33:56.495Z,32.97
2019-01-28T23:36:26.046Z,35.27
2019-01-28T23:38:55.569Z,31.13
2019-01-28T23:41:25.091Z,33.40
2019-01-28T23:43:54.625Z,32.40
2019-01-28T23:46:24.122Z,29.37
2019-01-28T23:48:53.654Z,33.37
2019-01-28T23:51:23.172Z,32.73
2019-01-28T23:53:52.782Z,33.47
2019-01-28T23:56:22.270Z,34.33
2019-01-28T23:58:51.790Z,35.13
